Time;durP1;ratioP1;P1;durP2;ratioP2;P2;SDS_P1;SDS_P2;PMS_P1;PMS_P2;Temp;Humidity;BMP_temperature;BMP_pressure;BME280_temperature;BME280_humidity;BME280_pressure;Samples;Min_cycle;Max_cycle;Signal;HPM_P1;HPM_P2
2022/10/06 00:02:08;;;;;;;;;;;;;;;20.90;31.25;99131.63;4936693;29;1338;-78
2022/10/06 00:04:34;;;;;;;;;;;;;;;21.14;30.51;99136.31;4922312;29;913;-79
2022/10/06 00:06:59;;;;;;;;;;;;;;;21.32;29.98;99130.56;4903593;29;1306;-79
2022/10/06 00:09:25;;;;;;;;;;;;;;;20.99;30.55;99129.16;4885957;29;1687;-79
2022/10/06 00:11:50;;;;;;;;;;;;;;;20.94;30.50;99115.44;4902888;29;1903;-79
2022/10/06 00:14:15;;;;;;;;;;;;;;;21.12;30.38;99130.25;4902973;29;919;-77
2022/10/06 00:16:41;;;;;;;;;;;;;;;20.85;30.54;99118.72;4887754;29;928;-79
2022/10/06 00:19:06;;;;;;;;;;;;;;;21.08;30.81;99127.44;4862668;29;1284;-78
2022/10/06 00:21:32;;;;;;;;;;;;;;;21.14;30.53;99129.84;4847387;29;895;-78
2022/10/06 00:23:57;;;;;;;;;;;;;;;21.38;30.31;99116.75;4857928;29;1568;-79
2022/10/06 00:26:23;;;;;;;;;;;;;;;21.13;30.19;99117.72;4861000;29;1466;-78
2022/10/06 00:28:48;;;;;;;;;;;;;;;21.07;30.36;99125.03;4862430;29;955;-79
2022/10/06 00:31:15;;;;;;;;;;;;;;;20.85;30.83;99120.72;4847158;29;1155;-78
2022/10/06 00:33:40;;;;;;;;;;;;;;;20.78;30.73;99125.22;4862693;29;1993;-79
2022/10/06 00:36:07;;;;;;;;;;;;;;;21.14;30.85;99118.50;4862086;29;1468;-80
2022/10/06 00:38:32;;;;;;;;;;;;;;;21.23;30.24;99122.50;4861290;29;1464;-79
2022/10/06 00:40:58;;;;;;;;;;;;;;;21.53;29.59;99112.59;4881215;29;1128;-79
2022/10/06 00:43:35;;;;;;;;;;;;;;;21.07;30.40;99119.38;4881006;29;1131;-79
2022/10/06 00:46:01;;;;;;;;;;;;;;;20.89;30.58;99124.34;4881239;29;1102;-79
2022/10/06 00:48:26;;;;;;;;;;;;;;;20.84;30.90;99127.63;4899777;29;911;-79
2022/10/06 00:50:53;;;;;;;;;;;;;;;20.83;30.99;99121.16;4914659;29;1569;-79
2022/10/06 00:53:18;;;;;;;;;;;;;;;20.72;31.32;99121.19;4880408;29;1899;-79
2022/10/06 00:55:44;;;;;;;;;;;;;;;20.72;31.45;99115.53;4881064;29;1177;-79
2022/10/06 00:58:10;;;;;;;;;;;;;;;21.21;30.84;99119.28;4880788;29;1174;-79
2022/10/06 01:00:36;;;;;;;;;;;;;;;21.43;30.48;99111.44;4880747;29;1230;-79
2022/10/06 01:03:18;;;;;;;;;;;;;;;21.12;30.79;99118.94;4861897;29;1227;-80
2022/10/06 01:05:45;;;;;;;;;;;;;;;20.88;31.39;99122.72;4895860;29;1524;-79
2022/10/06 01:08:12;;;;;;;;;;;;;;;20.90;30.90;99114.66;4895737;29;1350;-79
2022/10/06 01:10:37;;;;;;;;;;;;;;;20.73;31.44;99111.50;4895914;29;1089;-79
2022/10/06 01:13:02;;;;;;;;;;;;;;;21.16;31.68;99111.22;4896588;29;1907;-79
2022/10/06 01:15:28;;;;;;;;;;;;;;;21.36;30.93;99102.22;4896216;29;1251;-79
2022/10/06 01:17:58;;;;;;;;;;;;;;;21.21;31.04;99102.28;4880723;29;1181;-78
2022/10/06 01:20:24;;;;;;;;;;;;;;;21.11;31.10;99108.84;4880405;29;799;-79
2022/10/06 01:22:52;;;;;;;;;;;;;;;21.06;31.38;99106.44;4895597;29;1534;-79
2022/10/06 01:25:19;;;;;;;;;;;;;;;20.93;31.44;99105.31;4878676;29;1152;-79
2022/10/06 01:27:45;;;;;;;;;;;;;;;20.79;31.56;99098.53;4914989;29;1110;-79
2022/10/06 01:30:13;;;;;;;;;;;;;;;20.82;31.64;99102.56;4915211;29;1113;-78
2022/10/06 01:32:39;;;;;;;;;;;;;;;20.81;31.83;99100.94;4899026;29;1899;-79
2022/10/06 01:35:05;;;;;;;;;;;;;;;21.11;32.14;99085.41;4917112;29;1150;-78
2022/10/06 01:37:30;;;;;;;;;;;;;;;21.18;31.73;99094.63;4917752;29;1559;-79
2022/10/06 01:39:56;;;;;;;;;;;;;;;21.38;31.30;99083.59;4905931;29;1189;-79
2022/10/06 01:42:22;;;;;;;;;;;;;;;20.96;31.78;99091.16;4890480;29;1271;-79
2022/10/06 01:44:48;;;;;;;;;;;;;;;20.95;31.43;99091.56;4905985;29;1142;-79
2022/10/06 01:47:13;;;;;;;;;;;;;;;20.98;31.43;99093.56;4902709;29;961;-79
2022/10/06 01:49:39;;;;;;;;;;;;;;;20.78;31.70;99082.78;4902690;29;1150;-79
2022/10/06 01:52:05;;;;;;;;;;;;;;;20.95;32.34;99092.38;4902004;29;1919;-79
2022/10/06 01:54:30;;;;;;;;;;;;;;;21.20;31.59;99083.72;4887103;29;1169;-79
2022/10/06 01:56:56;;;;;;;;;;;;;;;21.22;31.67;99074.78;4902462;29;957;-80
2022/10/06 01:59:21;;;;;;;;;;;;;;;21.20;31.20;99075.22;4886235;29;1507;-79
2022/10/06 02:01:47;;;;;;;;;;;;;;;21.05;31.54;99082.22;4902496;29;1075;-79
2022/10/06 02:04:12;;;;;;;;;;;;;;;21.05;31.53;99077.34;4886610;29;1167;-79
2022/10/06 02:06:38;;;;;;;;;;;;;;;21.06;31.40;99066.84;4918030;29;1157;-79
2022/10/06 02:09:04;;;;;;;;;;;;;;;20.80;31.88;99066.19;4917296;29;1595;-78
2022/10/06 02:11:29;;;;;;;;;;;;;;;20.99;31.50;99078.22;4918151;29;1244;-79
2022/10/06 02:13:55;;;;;;;;;;;;;;;20.89;31.54;99067.78;4917975;29;1915;-79
2022/10/06 02:16:20;;;;;;;;;;;;;;;21.21;31.79;99062.66;4918098;29;1346;-79
2022/10/06 02:18:46;;;;;;;;;;;;;;;21.33;31.29;99067.03;4932418;29;1153;-80
2022/10/06 02:21:12;;;;;;;;;;;;;;;21.21;31.50;99062.66;4939297;29;1512;-79
2022/10/06 02:23:38;;;;;;;;;;;;;;;21.03;31.90;99073.31;4924298;29;781;-79
2022/10/06 02:26:05;;;;;;;;;;;;;;;20.93;31.79;99071.34;4924041;29;1299;-79
2022/10/06 02:28:33;;;;;;;;;;;;;;;20.99;31.55;99067.69;4923451;29;1459;-78
2022/10/06 02:31:05;;;;;;;;;;;;;;;21.11;31.34;99052.25;4924154;29;1392;-79
2022/10/06 02:33:31;;;;;;;;;;;;;;;20.84;31.97;99065.38;4924172;29;1993;-79
2022/10/06 02:35:57;;;;;;;;;;;;;;;20.82;31.96;99062.94;4923804;29;1439;-79
2022/10/06 02:38:25;;;;;;;;;;;;;;;20.91;32.75;99062.50;4924286;29;1157;-79
2022/10/06 02:40:51;;;;;;;;;;;;;;;21.42;31.41;99056.03;4923822;29;1271;-79
2022/10/06 02:43:17;;;;;;;;;;;;;;;21.38;31.47;99057.31;4939255;29;1506;-79
2022/10/06 02:45:42;;;;;;;;;;;;;;;21.01;31.81;99059.59;4939728;29;809;-79
2022/10/06 02:48:09;;;;;;;;;;;;;;;21.26;31.76;99059.41;4939964;29;1117;-79
2022/10/06 02:50:36;;;;;;;;;;;;;;;21.91;31.06;99053.13;4938914;28;855;-79
2022/10/06 02:53:02;;;;;;;;;;;;;;;21.29;31.85;99047.22;4926861;29;1993;-79
2022/10/06 02:55:30;;;;;;;;;;;;;;;20.97;32.26;99049.50;4940337;29;1342;-79
2022/10/06 02:57:55;;;;;;;;;;;;;;;21.35;31.65;99049.63;4920802;29;1487;-79
2022/10/06 03:00:21;;;;;;;;;;;;;;;21.18;32.10;99040.84;4922159;29;791;-79
2022/10/06 03:02:46;;;;;;;;;;;;;;;20.94;32.50;99053.19;4939997;29;1298;-79
2022/10/06 03:05:12;;;;;;;;;;;;;;;20.80;32.64;99049.22;4941429;29;685;-79
2022/10/06 03:07:38;;;;;;;;;;;;;;;21.14;32.33;99039.28;4954813;29;1275;-79
2022/10/06 03:10:04;;;;;;;;;;;;;;;20.91;32.71;99051.19;4944264;29;1420;-79
2022/10/06 03:12:31;;;;;;;;;;;;;;;21.01;32.59;99047.47;4939090;29;1983;-79
2022/10/06 03:14:57;;;;;;;;;;;;;;;20.97;32.59;99041.03;4954940;29;1137;-79
2022/10/06 03:17:22;;;;;;;;;;;;;;;20.88;32.67;99052.84;4935049;29;1460;-78
2022/10/06 03:19:54;;;;;;;;;;;;;;;20.94;32.79;99050.38;4920021;29;1169;-79
2022/10/06 03:22:20;;;;;;;;;;;;;;;21.18;32.23;99057.84;4919525;29;1167;-79
2022/10/06 03:24:50;;;;;;;;;;;;;;;20.99;32.53;99044.25;4897251;29;1220;-79
2022/10/06 03:27:16;;;;;;;;;;;;;;;20.99;32.33;99049.91;4916507;29;864;-79
2022/10/06 03:29:41;;;;;;;;;;;;;;;20.87;32.79;99056.06;4900851;29;1290;-79
2022/10/06 03:32:06;;;;;;;;;;;;;;;21.08;32.52;99053.06;4896594;29;2244;-79
2022/10/06 03:34:33;;;;;;;;;;;;;;;21.14;33.43;99057.09;4897723;29;1247;-79
2022/10/06 03:37:01;;;;;;;;;;;;;;;21.23;33.62;99057.38;4897837;29;1327;-79
2022/10/06 03:39:27;;;;;;;;;;;;;;;21.38;32.76;99062.97;4882173;29;1395;-79
2022/10/06 03:41:52;;;;;;;;;;;;;;;21.20;32.92;99063.91;4900666;29;772;-79
2022/10/06 03:44:20;;;;;;;;;;;;;;;21.32;32.76;99057.75;4900725;29;1084;-79
2022/10/06 03:46:46;;;;;;;;;;;;;;;21.16;32.42;99063.13;4884653;29;1419;-79
2022/10/06 03:49:11;;;;;;;;;;;;;;;21.18;32.68;99057.84;4916401;29;1112;-79
2022/10/06 03:51:39;;;;;;;;;;;;;;;21.04;32.82;99063.63;4916338;29;1282;-79
2022/10/06 03:54:11;;;;;;;;;;;;;;;21.08;32.68;99058.72;4916271;29;1161;-79
2022/10/06 03:56:40;;;;;;;;;;;;;;;20.95;32.98;99066.09;4927601;29;1637;-79
2022/10/06 03:59:08;;;;;;;;;;;;;;;20.87;33.25;99075.84;4939446;29;1188;-79
2022/10/06 04:01:35;;;;;;;;;;;;;;;21.10;32.52;99064.78;4918083;29;1186;-78
2022/10/06 04:04:03;;;;;;;;;;;;;;;20.92;33.14;99072.59;4919471;29;1106;-79
2022/10/06 04:06:29;;;;;;;;;;;;;;;20.97;32.74;99074.97;4919478;29;1405;-79
2022/10/06 04:08:55;;;;;;;;;;;;;;;20.89;33.12;99071.41;4919401;29;1118;-79
2022/10/06 04:11:22;;;;;;;;;;;;;;;21.04;32.57;99072.13;4919017;29;1257;-79
2022/10/06 04:13:59;;;;;;;;;;;;;;;20.93;32.82;99074.19;4918799;29;1982;-79
2022/10/06 04:16:27;;;;;;;;;;;;;;;20.79;32.96;99069.44;4917890;29;1134;-79
2022/10/06 04:18:53;;;;;;;;;;;;;;;20.97;32.44;99080.63;4917942;29;728;-79
2022/10/06 04:21:18;;;;;;;;;;;;;;;21.10;33.74;99067.63;4917219;29;860;-79
2022/10/06 04:23:44;;;;;;;;;;;;;;;21.35;33.31;99066.63;4916983;29;1263;-78
2022/10/06 04:26:10;;;;;;;;;;;;;;;21.41;32.92;99059.31;4917165;29;1057;-79
2022/10/06 04:28:37;;;;;;;;;;;;;;;21.28;33.06;99061.78;4917083;29;1228;-79
2022/10/06 04:31:03;;;;;;;;;;;;;;;21.16;32.96;99070.81;4918074;29;1277;-79
2022/10/06 04:33:31;;;;;;;;;;;;;;;20.89;33.52;99079.09;4921760;29;1903;-79
2022/10/06 04:35:57;;;;;;;;;;;;;;;20.79;33.58;99084.41;4905901;29;1262;-78
2022/10/06 04:38:22;;;;;;;;;;;;;;;20.97;32.97;99087.09;4920587;29;1453;-78
2022/10/06 04:40:48;;;;;;;;;;;;;;;21.00;32.87;99080.63;4936661;29;1164;-78
2022/10/06 04:43:14;;;;;;;;;;;;;;;21.01;32.91;99081.41;4898921;29;870;-79
2022/10/06 04:45:39;;;;;;;;;;;;;;;20.93;33.13;99079.84;4868477;29;1233;-77
2022/10/06 04:48:05;;;;;;;;;;;;;;;20.97;33.07;99072.94;4899535;29;1305;-79
2022/10/06 04:50:30;;;;;;;;;;;;;;;20.93;32.97;99079.84;4915318;29;1124;-79
2022/10/06 04:53:05;;;;;;;;;;;;;;;20.82;33.29;99074.25;4899491;29;1910;-78
2022/10/06 04:55:31;;;;;;;;;;;;;;;20.85;33.03;99078.31;4915306;29;1153;-78
2022/10/06 04:57:56;;;;;;;;;;;;;;;20.93;32.65;99077.81;4915279;29;1243;-78
2022/10/06 05:00:24;;;;;;;;;;;;;;;21.10;33.39;99073.28;4898623;29;1281;-79
2022/10/06 05:02:54;;;;;;;;;;;;;;;21.08;34.12;99078.53;4880187;29;1182;-79
2022/10/06 05:05:20;;;;;;;;;;;;;;;21.30;33.72;99076.38;4879583;29;810;-78
2022/10/06 05:07:46;;;;;;;;;;;;;;;21.21;33.21;99076.81;4879344;29;1177;-79
2022/10/06 05:10:12;;;;;;;;;;;;;;;21.21;33.21;99074.00;4880102;29;1335;-77
2022/10/06 05:12:38;;;;;;;;;;;;;;;21.21;32.98;99079.66;4877314;29;1899;-78
2022/10/06 05:15:05;;;;;;;;;;;;;;;20.91;33.49;99088.75;4881055;29;1186;-79
2022/10/06 05:17:30;;;;;;;;;;;;;;;20.97;33.05;99086.28;4865910;29;721;-78
2022/10/06 05:19:55;;;;;;;;;;;;;;;20.98;33.04;99085.88;4876714;29;1197;-78
2022/10/06 05:22:21;;;;;;;;;;;;;;;20.99;33.35;99089.53;4921920;29;737;-78
2022/10/06 05:24:48;;;;;;;;;;;;;;;21.05;33.16;99083.00;4922173;29;776;-79
2022/10/06 05:27:14;;;;;;;;;;;;;;;21.04;33.10;99089.09;4906174;29;1277;-78
2022/10/06 05:29:39;;;;;;;;;;;;;;;20.94;34.64;99084.31;4921756;29;783;-78
2022/10/06 05:32:06;;;;;;;;;;;;;;;21.21;33.80;99085.31;4922029;29;1976;-78
2022/10/06 05:34:34;;;;;;;;;;;;;;;21.30;33.70;99077.19;4921662;29;1309;-79
2022/10/06 05:37:00;;;;;;;;;;;;;;;21.06;33.70;99084.63;4906112;29;1352;-78
2022/10/06 05:39:25;;;;;;;;;;;;;;;20.90;33.85;99092.81;4928741;29;823;-79
2022/10/06 05:41:54;;;;;;;;;;;;;;;20.92;33.64;99098.06;4944060;29;1235;-79
2022/10/06 05:44:20;;;;;;;;;;;;;;;21.07;33.45;99091.88;4960850;29;814;-79
2022/10/06 05:46:46;;;;;;;;;;;;;;;21.19;33.03;99093.44;4960281;29;1281;-78
2022/10/06 05:49:12;;;;;;;;;;;;;;;21.16;33.19;99090.63;4960440;29;1193;-78
2022/10/06 05:51:42;;;;;;;;;;;;;;;21.06;33.30;99089.47;4959471;29;1076;-77
2022/10/06 05:54:13;;;;;;;;;;;;;;;21.10;33.23;99100.78;4959535;29;1210;-79
2022/10/06 05:56:39;;;;;;;;;;;;;;;20.97;33.47;99103.28;4959407;29;971;-78
2022/10/06 05:59:06;;;;;;;;;;;;;;;20.97;33.27;99106.09;4959562;29;1173;-78
2022/10/06 06:01:33;;;;;;;;;;;;;;;20.81;33.63;99107.41;4959355;29;1371;-78
2022/10/06 06:04:01;;;;;;;;;;;;;;;20.66;33.73;99100.22;4959676;29;1333;-78
2022/10/06 06:06:32;;;;;;;;;;;;;;;20.66;33.75;99099.41;4958556;29;1367;-78
2022/10/06 06:09:02;;;;;;;;;;;;;;;20.62;33.90;99099.44;4959178;29;1301;-78
2022/10/06 06:11:30;;;;;;;;;;;;;;;20.95;33.26;99112.19;4959079;29;1294;-81
2022/10/06 06:14:14;;;;;;;;;;;;;;;20.83;33.22;99106.19;4920373;29;1915;-79
2022/10/06 06:16:40;;;;;;;;;;;;;;;20.96;33.02;99112.97;4920962;29;1153;-79
2022/10/06 06:19:05;;;;;;;;;;;;;;;20.89;33.01;99113.03;4920230;29;911;-79
2022/10/06 06:21:32;;;;;;;;;;;;;;;20.72;33.08;99109.06;4920796;29;1182;-79
2022/10/06 06:23:57;;;;;;;;;;;;;;;20.65;33.15;99104.28;4920063;29;1172;-79
2022/10/06 06:26:23;;;;;;;;;;;;;;;20.57;33.53;99113.19;4919535;29;1274;-79
2022/10/06 06:28:52;;;;;;;;;;;;;;;20.67;32.86;99113.13;4920345;29;803;-78
2022/10/06 06:31:22;;;;;;;;;;;;;;;20.86;32.70;99111.03;4916826;29;1174;-79
2022/10/06 06:33:52;;;;;;;;;;;;;;;20.90;32.15;99103.31;4912168;29;1987;-79
2022/10/06 06:36:20;;;;;;;;;;;;;;;20.59;32.97;99105.91;4920563;29;1220;-78
2022/10/06 06:38:46;;;;;;;;;;;;;;;20.53;32.80;99096.25;4920808;29;1227;-79
2022/10/06 06:41:21;;;;;;;;;;;;;;;20.50;32.67;99108.38;4921115;29;1122;-79
2022/10/06 06:43:49;;;;;;;;;;;;;;;20.71;32.83;99102.63;4867297;29;1401;-78
2022/10/06 06:46:30;;;;;;;;;;;;;;;21.02;33.11;99112.13;4882887;29;1284;-79
2022/10/06 06:49:17;;;;;;;;;;;;;;;21.29;32.90;99112.31;4882981;29;935;-78
2022/10/06 06:51:48;;;;;;;;;;;;;;;21.16;32.99;99114.06;4895751;29;1087;-79
2022/10/06 06:54:15;;;;;;;;;;;;;;;20.84;33.10;99117.09;4901469;29;1357;-78
2022/10/06 06:56:44;;;;;;;;;;;;;;;20.73;33.01;99105.06;4901000;29;1181;-78
2022/10/06 06:59:11;;;;;;;;;;;;;;;20.64;32.96;99113.19;4901363;29;1252;-79
2022/10/06 07:01:43;;;;;;;;;;;;;;;20.49;33.04;99118.09;4901067;29;1118;-78
2022/10/06 07:04:09;;;;;;;;;;;;;;;20.72;32.72;99115.53;4900894;29;1160;-79
2022/10/06 07:06:35;;;;;;;;;;;;;;;20.72;32.34;99115.53;4901296;29;729;-79
2022/10/06 07:09:01;;;;;;;;;;;;;;;21.09;32.58;99111.28;4901232;29;1146;-79
2022/10/06 07:11:29;;;;;;;;;;;;;;;21.16;32.69;99119.72;4901235;29;1176;-79
2022/10/06 07:13:56;;;;;;;;;;;;;;;21.31;31.95;99112.75;4909979;29;1915;-79
2022/10/06 07:27:23;;;;;;;;;;;;;;;20.57;32.37;99105.50;4944870;29;1146;-79
2022/10/06 07:29:53;;;;;;;;;;;;;;;20.63;32.95;99103.88;4943432;29;1148;-79
2022/10/06 07:32:20;;;;;;;;;;;;;;;21.21;31.73;99099.47;4943625;29;1910;-79
2022/10/06 07:34:46;;;;;;;;;;;;;;;21.27;31.75;99106.28;4942783;29;819;-79
2022/10/06 07:37:12;;;;;;;;;;;;;;;21.39;31.36;99101.38;4942542;28;733;-78
2022/10/06 07:39:37;;;;;;;;;;;;;;;21.18;31.40;99094.63;4942817;29;770;-79
2022/10/06 07:42:06;;;;;;;;;;;;;;;21.10;31.43;99100.78;4960138;29;720;-79
2022/10/06 07:44:32;;;;;;;;;;;;;;;20.80;31.86;99094.47;4959939;29;914;-79
2022/10/06 07:46:58;;;;;;;;;;;;;;;20.88;31.50;99094.44;4942165;29;1357;-79
2022/10/06 07:49:47;;;;;;;;;;;;;;;20.73;31.80;99094.53;4925396;29;944;-78
2022/10/06 07:52:12;;;;;;;;;;;;;;;20.81;31.97;99087.59;4938208;29;1910;-79
2022/10/06 07:54:38;;;;;;;;;;;;;;;20.67;32.02;99101.81;4938352;29;1114;-79
2022/10/06 07:57:21;;;;;;;;;;;;;;;20.75;31.65;99099.78;4922450;29;1115;-78
2022/10/06 07:59:46;;;;;;;;;;;;;;;20.70;31.71;99100.22;4922681;29;1223;-78
2022/10/06 08:02:12;;;;;;;;;;;;;;;20.67;31.80;99090.50;4937805;29;816;-79
2022/10/06 08:04:37;;;;;;;;;;;;;;;21.10;31.61;99098.75;4938184;29;1160;-79
2022/10/06 08:07:03;;;;;;;;;;;;;;;21.43;30.74;99096.50;4938107;29;986;-79
2022/10/06 08:09:29;;;;;;;;;;;;;;;21.03;31.20;99096.75;4937739;29;787;-79
2022/10/06 08:11:55;;;;;;;;;;;;;;;20.72;31.74;99087.25;4937687;29;1914;-79
2022/10/06 08:14:21;;;;;;;;;;;;;;;20.59;32.14;99083.31;4937787;29;933;-79
2022/10/06 08:16:47;;;;;;;;;;;;;;;20.84;31.53;99082.34;4937743;29;921;-79
2022/10/06 08:19:13;;;;;;;;;;;;;;;20.69;31.67;99090.91;4937640;29;865;-79
2022/10/06 08:21:38;;;;;;;;;;;;;;;20.66;31.88;99077.59;4937857;29;749;-79
2022/10/06 08:24:04;;;;;;;;;;;;;;;21.10;31.18;99078.94;4922017;29;796;-78
2022/10/06 08:26:30;;;;;;;;;;;;;;;21.18;30.96;99071.97;4946060;29;949;-79
2022/10/06 08:28:58;;;;;;;;;;;;;;;21.25;30.91;99074.78;4941808;29;880;-79
2022/10/06 08:31:24;;;;;;;;;;;;;;;21.14;30.79;99074.06;4942109;29;828;-78
2022/10/06 08:33:52;;;;;;;;;;;;;;;20.95;31.49;99078.22;4958825;29;1975;-79
2022/10/06 08:36:18;;;;;;;;;;;;;;;21.01;31.15;99068.06;4942233;29;1189;-79
2022/10/06 08:38:48;;;;;;;;;;;;;;;20.72;31.53;99061.78;4942174;29;729;-79
2022/10/06 08:41:21;;;;;;;;;;;;;;;20.55;31.95;99062.72;4958725;29;852;-79
2022/10/06 08:43:52;;;;;;;;;;;;;;;20.57;31.78;99063.09;4942153;29;1145;-79
2022/10/06 08:46:17;;;;;;;;;;;;;;;20.75;31.50;99066.63;4941848;29;1214;-79
2022/10/06 08:48:43;;;;;;;;;;;;;;;20.71;32.02;99068.69;4940833;29;780;-78
2022/10/06 08:51:08;;;;;;;;;;;;;;;21.11;31.01;99063.56;4958989;29;693;-79
2022/10/06 08:53:34;;;;;;;;;;;;;;;21.13;30.76;99072.44;4958549;29;1915;-78
2022/10/06 08:56:03;;;;;;;;;;;;;;;20.96;31.04;99073.38;4941877;29;737;-79
2022/10/06 08:58:29;;;;;;;;;;;;;;;21.05;30.84;99070.88;4941489;29;752;-79
2022/10/06 09:01:08;;;;;;;;;;;;;;;20.69;31.45;99059.81;4958662;29;744;-79
2022/10/06 09:07:12;;;;;;;;;;;;;;;20.68;31.80;99060.22;4958675;29;686;-79
2022/10/06 09:09:52;;;;;;;;;;;;;;;21.21;30.79;99045.69;4941418;29;768;-79
2022/10/06 09:12:31;;;;;;;;;;;;;;;20.97;31.12;99058.00;4941539;29;1967;-79
2022/10/06 09:15:09;;;;;;;;;;;;;;;20.94;30.98;99056.03;4941276;29;744;-80
2022/10/06 09:17:36;;;;;;;;;;;;;;;20.81;31.40;99059.31;4956915;29;725;-79
2022/10/06 09:20:25;;;;;;;;;;;;;;;20.65;31.13;99027.91;4940046;29;768;-79
2022/10/06 09:22:51;;;;;;;;;;;;;;;20.77;31.29;99058.53;4898159;29;1670;-79
2022/10/06 09:25:18;;;;;;;;;;;;;;;21.19;30.67;99059.47;4882650;29;1070;-79
2022/10/06 09:27:44;;;;;;;;;;;;;;;21.29;30.81;99058.53;4898662;29;890;-79
2022/10/06 09:30:13;;;;;;;;;;;;;;;20.99;30.91;99067.69;4897804;29;787;-79
2022/10/06 09:32:39;;;;;;;;;;;;;;;20.84;31.27;99065.38;4898322;29;1899;-83
2022/10/06 09:35:14;;;;;;;;;;;;;;;20.63;31.78;99067.13;4883438;29;952;-82
2022/10/06 09:37:50;;;;;;;;;;;;;;;20.69;31.53;99065.47;4899012;29;840;-80
2022/10/06 09:40:28;;;;;;;;;;;;;;;20.72;31.29;99053.31;4899090;29;939;-82
2022/10/06 09:42:53;;;;;;;;;;;;;;;20.71;31.58;99048.06;4899467;29;977;-82
2022/10/06 09:45:23;;;;;;;;;;;;;;;20.76;31.33;99054.09;4883491;29;937;-84
2022/10/06 09:47:49;;;;;;;;;;;;;;;20.93;31.19;99048.72;4898861;29;1066;-83
2022/10/06 09:50:15;;;;;;;;;;;;;;;20.86;31.40;99048.78;4898909;29;758;-83
2022/10/06 09:53:00;;;;;;;;;;;;;;;21.17;30.77;99046.94;4899213;29;1965;-83
2022/10/06 09:55:27;;;;;;;;;;;;;;;20.95;31.20;99046.31;4898979;29;829;-83
2022/10/06 09:57:54;;;;;;;;;;;;;;;20.85;31.52;99050.81;4883226;29;785;-83
2022/10/06 10:00:40;;;;;;;;;;;;;;;20.90;31.27;99047.56;4928461;29;1005;-83
2022/10/06 10:03:07;;;;;;;;;;;;;;;20.92;31.32;99039.44;4908203;29;1152;-83
2022/10/06 10:05:33;;;;;;;;;;;;;;;20.64;31.79;99045.31;4904601;29;1276;-84
2022/10/06 10:08:01;;;;;;;;;;;;;;;20.68;31.44;99041.25;4889416;29;901;-83
2022/10/06 10:10:27;;;;;;;;;;;;;;;20.75;31.33;99046.84;4904870;29;1299;-83
2022/10/06 10:12:53;;;;;;;;;;;;;;;20.88;31.18;99043.50;4889367;29;1964;-83
2022/10/06 10:15:18;;;;;;;;;;;;;;;21.24;30.60;99042.03;4921321;29;874;-83
2022/10/06 10:17:46;;;;;;;;;;;;;;;21.10;30.64;99030.81;4905567;29;1156;-83
2022/10/06 10:20:23;;;;;;;;;;;;;;;20.88;31.16;99030.19;4898457;29;898;-83
2022/10/06 10:22:49;;;;;;;;;;;;;;;20.60;31.58;99031.19;4924138;29;1138;-83
2022/10/06 10:25:20;;;;;;;;;;;;;;;20.72;31.41;99036.34;4924040;29;813;-83
2022/10/06 10:27:58;;;;;;;;;;;;;;;20.63;31.55;99036.03;4940075;29;867;-83
2022/10/06 10:30:25;;;;;;;;;;;;;;;20.56;31.48;99033.22;4924341;29;1402;-83
2022/10/06 10:33:10;;;;;;;;;;;;;;;20.50;31.60;99029.22;4939630;29;1910;-83
2022/10/06 10:35:37;;;;;;;;;;;;;;;21.04;31.13;99019.16;4926078;29;1010;-83
2022/10/06 10:38:08;;;;;;;;;;;;;;;21.44;30.34;99021.66;4944035;29;737;-83
2022/10/06 10:40:38;;;;;;;;;;;;;;;21.22;30.37;99021.81;4944115;29;1129;-84
2022/10/06 10:43:06;;;;;;;;;;;;;;;20.86;31.12;99023.34;4944303;29;1356;-83
2022/10/06 10:45:35;;;;;;;;;;;;;;;20.79;31.56;99018.53;4944194;29;772;-83
2022/10/06 10:48:03;;;;;;;;;;;;;;;20.66;31.34;99012.56;4944411;29;1180;-83
2022/10/06 10:50:33;;;;;;;;;;;;;;;20.64;31.28;99017.81;4944187;29;1198;-83
2022/10/06 10:53:00;;;;;;;;;;;;;;;20.74;31.28;99002.81;4944158;29;1980;-83
2022/10/06 10:55:26;;;;;;;;;;;;;;;20.68;31.52;98995.19;4943706;29;1122;-83
2022/10/06 10:57:52;;;;;;;;;;;;;;;21.11;30.81;99006.97;4960325;29;799;-83
2022/10/06 11:00:24;;;;;;;;;;;;;;;21.27;30.46;99000.75;4943865;29;1185;-83
2022/10/06 11:02:53;;;;;;;;;;;;;;;20.91;30.82;99000.25;4943757;29;844;-84
2022/10/06 11:05:29;;;;;;;;;;;;;;;20.80;31.13;98998.31;4920657;29;1218;-83
2022/10/06 11:08:00;;;;;;;;;;;;;;;20.63;31.48;98982.28;4920273;29;1326;-83
2022/10/06 11:10:28;;;;;;;;;;;;;;;20.72;31.20;98985.44;4919570;29;1254;-83
2022/10/06 11:13:01;;;;;;;;;;;;;;;20.69;31.33;98986.28;4920036;29;1985;-83
2022/10/06 11:15:44;;;;;;;;;;;;;;;20.77;31.07;98984.19;4904310;29;1118;-83
2022/10/06 11:18:21;;;;;;;;;;;;;;;20.66;31.29;98972.97;4888903;29;1348;-84
2022/10/06 11:21:12;;;;;;;;;;;;;;;20.72;31.69;98970.50;4882201;29;923;-84
2022/10/06 11:23:49;;;;;;;;;;;;;;;21.17;30.77;98971.31;4845148;29;1075;-84
2022/10/06 11:26:20;;;;;;;;;;;;;;;21.41;30.06;98974.38;4845401;29;876;-83
2022/10/06 11:28:52;;;;;;;;;;;;;;;20.85;31.25;98970.81;4830344;29;910;-83
2022/10/06 11:31:18;;;;;;;;;;;;;;;20.91;30.85;98963.47;4830043;29;1268;-83
2022/10/06 11:33:47;;;;;;;;;;;;;;;20.79;31.06;98964.78;4845041;29;1907;-83
2022/10/06 11:36:14;;;;;;;;;;;;;;;20.88;31.05;98959.47;4838311;29;893;-83
2022/10/06 11:38:41;;;;;;;;;;;;;;;20.89;30.75;98960.28;4848266;29;769;-83
2022/10/06 11:41:18;;;;;;;;;;;;;;;20.56;31.40;98971.00;4848329;29;1246;-83
2022/10/06 11:44:02;;;;;;;;;;;;;;;20.67;31.48;98966.06;4863516;29;765;-83
2022/10/06 11:46:44;;;;;;;;;;;;;;;21.13;30.87;98964.09;4811725;29;1124;-83
2022/10/06 11:49:27;;;;;;;;;;;;;;;21.20;30.63;98950.69;4826804;29;860;-83
2022/10/06 11:51:56;;;;;;;;;;;;;;;20.91;30.91;98960.66;4837329;29;1191;-83
2022/10/06 11:54:40;;;;;;;;;;;;;;;20.76;31.32;98951.47;4844571;29;1984;-83
2022/10/06 11:57:28;;;;;;;;;;;;;;;20.75;31.38;98945.03;4844897;29;1274;-83
2022/10/06 11:59:54;;;;;;;;;;;;;;;20.85;31.07;98948.19;4808145;29;1152;-83
2022/10/06 12:02:28;;;;;;;;;;;;;;;20.95;30.95;98948.09;4793357;29;1321;-83
2022/10/06 12:05:14;;;;;;;;;;;;;;;20.64;31.48;98949.16;4808142;29;901;-83
2022/10/06 12:07:51;;;;;;;;;;;;;;;20.55;31.62;98952.44;4789754;30;1104;-83
2022/10/06 12:10:30;;;;;;;;;;;;;;;20.66;31.29;98947.50;4789741;30;1080;-83
2022/10/06 12:12:57;;;;;;;;;;;;;;;21.07;30.91;98944.72;4790151;30;1907;-83
2022/10/06 12:15:27;;;;;;;;;;;;;;;21.33;30.23;98945.31;4790004;30;711;-83
2022/10/06 12:17:52;;;;;;;;;;;;;;;20.92;31.16;98948.09;4787636;29;1173;-84
2022/10/06 12:20:37;;;;;;;;;;;;;;;20.81;31.25;98949.00;4808272;29;852;-84
2022/10/06 12:23:13;;;;;;;;;;;;;;;20.63;31.51;98950.38;4807044;29;975;-83
2022/10/06 12:25:38;;;;;;;;;;;;;;;20.54;31.51;98948.00;4807956;29;993;-83
2022/10/06 12:28:09;;;;;;;;;;;;;;;20.55;31.34;98953.25;4807863;29;784;-83
2022/10/06 12:30:44;;;;;;;;;;;;;;;20.72;31.39;98945.03;4808056;29;937;-83
2022/10/06 12:33:18;;;;;;;;;;;;;;;20.89;31.06;98954.63;4825992;29;1903;-83
2022/10/06 12:35:43;;;;;;;;;;;;;;;21.21;30.45;98949.47;4810747;29;951;-84
2022/10/06 12:38:44;;;;;;;;;;;;;;;21.18;30.33;98944.63;4851767;29;1435;-83
2022/10/06 12:41:12;;;;;;;;;;;;;;;20.76;31.05;98938.13;4826388;29;860;-83
2022/10/06 12:43:53;;;;;;;;;;;;;;;20.77;31.15;98939.75;4812898;29;920;-83
2022/10/06 12:46:21;;;;;;;;;;;;;;;20.59;31.39;98936.25;4899824;29;1268;-83
2022/10/06 12:48:56;;;;;;;;;;;;;;;20.64;31.49;98938.66;4899502;29;964;-83
2022/10/06 12:51:21;;;;;;;;;;;;;;;20.51;31.54;98941.16;4884325;29;1088;-83
2022/10/06 12:54:08;;;;;;;;;;;;;;;20.58;31.30;98929.00;4884077;29;1907;-83
2022/10/06 12:56:43;;;;;;;;;;;;;;;20.95;31.18;98933.13;4899059;29;899;-83
2022/10/06 12:59:27;;;;;;;;;;;;;;;21.15;30.67;98928.50;4899205;29;847;-83
2022/10/06 13:01:57;;;;;;;;;;;;;;;21.03;30.62;98931.84;4883794;29;1277;-83
2022/10/06 13:04:30;;;;;;;;;;;;;;;20.87;30.90;98940.88;4898906;29;777;-84
2022/10/06 13:06:55;;;;;;;;;;;;;;;20.90;30.77;98942.88;4899088;29;807;-84
2022/10/06 13:09:21;;;;;;;;;;;;;;;20.84;30.73;98929.59;4883437;29;1135;-84
2022/10/06 13:11:48;;;;;;;;;;;;;;;20.83;30.89;98939.28;4899351;29;1110;-83
2022/10/06 13:14:13;;;;;;;;;;;;;;;20.72;31.10;98933.72;4891076;29;1981;-83
2022/10/06 13:16:43;;;;;;;;;;;;;;;21.14;30.65;98932.56;4941172;29;771;-83
2022/10/06 13:19:21;;;;;;;;;;;;;;;21.35;30.02;98936.38;4957307;29;779;-83
2022/10/06 13:21:46;;;;;;;;;;;;;;;21.03;30.33;98920.50;4940866;29;1196;-84
2022/10/06 13:24:46;;;;;;;;;;;;;;;20.80;30.82;98913.47;4940848;29;1245;-83